sensor_id;sensor_type;location;lat;lon;timestamp;temperature;humidity
11446;DHT22;5779;64.178;15.432;2022-10-16T00:02:02;2.10;99.90
11446;DHT22;5779;64.178;15.432;2022-10-16T00:04:49;2.00;99.90
11446;DHT22;5779;64.178;15.432;2022-10-16T00:07:36;1.90;99.90
11446;DHT22;5779;64.178;15.432;2022-10-16T00:10:23;1.80;99.90
11446;DHT22;5779;64.178;15.432;2022-10-16T00:13:10;1.80;99.90
11446;DHT22;5779;64.178;15.432;2022-10-16T00:16:00;1.70;99.90
11446;DHT22;5779;64.178;15.432;2022-10-16T00:18:47;1.70;99.90
11446;DHT22;5779;64.178;15.432;2022-10-16T00:21:34;1.70;99.90
11446;DHT22;5779;64.178;15.432;2022-10-16T00:24:21;1.70;99.90
11446;DHT22;5779;64.178;15.432;2022-10-16T00:27:08;1.90;99.90
11446;DHT22;5779;64.178;15.432;2022-10-16T00:29:55;1.80;99.90
11446;DHT22;5779;64.178;15.432;2022-10-16T00:32:44;1.80;99.90
11446;DHT22;5779;64.178;15.432;2022-10-16T00:35:31;1.80;99.90
11446;DHT22;5779;64.178;15.432;2022-10-16T00:38:18;1.90;99.90
11446;DHT22;5779;64.178;15.432;2022-10-16T00:41:05;1.90;99.90
11446;DHT22;5779;64.178;15.432;2022-10-16T00:43:53;1.90;99.90
11446;DHT22;5779;64.178;15.432;2022-10-16T00:46:41;2.00;99.90
11446;DHT22;5779;64.178;15.432;2022-10-16T00:49:30;2.00;99.90
11446;DHT22;5779;64.178;15.432;2022-10-16T00:52:18;1.90;99.90
11446;DHT22;5779;64.178;15.432;2022-10-16T00:55:06;2.00;99.90
11446;DHT22;5779;64.178;15.432;2022-10-16T00:57:54;2.10;99.90
11446;DHT22;5779;64.178;15.432;2022-10-16T01:00:42;2.20;99.90
11446;DHT22;5779;64.178;15.432;2022-10-16T01:03:31;2.20;99.90
11446;DHT22;5779;64.178;15.432;2022-10-16T01:06:25;2.10;99.90
11446;DHT22;5779;64.178;15.432;2022-10-16T01:09:18;2.20;99.90
11446;DHT22;5779;64.178;15.432;2022-10-16T01:12:12;2.20;99.90
11446;DHT22;5779;64.178;15.432;2022-10-16T01:15:08;2.20;99.90
11446;DHT22;5779;64.178;15.432;2022-10-16T01:18:00;2.20;99.90
11446;DHT22;5779;64.178;15.432;2022-10-16T01:20:52;2.30;99.90
11446;DHT22;5779;64.178;15.432;2022-10-16T01:23:50;2.20;99.90
11446;DHT22;5779;64.178;15.432;2022-10-16T01:27:00;2.00;99.90
11446;DHT22;5779;64.178;15.432;2022-10-16T01:29:53;2.10;99.90
11446;DHT22;5779;64.178;15.432;2022-10-16T01:32:41;2.20;99.90
11446;DHT22;5779;64.178;15.432;2022-10-16T01:35:34;2.30;99.90
11446;DHT22;5779;64.178;15.432;2022-10-16T01:38:26;2.20;99.90
11446;DHT22;5779;64.178;15.432;2022-10-16T01:41:18;2.20;99.90
11446;DHT22;5779;64.178;15.432;2022-10-16T01:44:11;2.30;99.90
11446;DHT22;5779;64.178;15.432;2022-10-16T01:47:00;2.30;99.90
11446;DHT22;5779;64.178;15.432;2022-10-16T01:49:47;2.50;99.90
11446;DHT22;5779;64.178;15.432;2022-10-16T01:52:37;2.40;99.90
11446;DHT22;5779;64.178;15.432;2022-10-16T01:55:28;2.40;99.90
11446;DHT22;5779;64.178;15.432;2022-10-16T01:58:16;2.30;99.90
11446;DHT22;5779;64.178;15.432;2022-10-16T02:01:07;2.30;99.90
11446;DHT22;5779;64.178;15.432;2022-10-16T02:03:58;2.30;99.90
11446;DHT22;5779;64.178;15.432;2022-10-16T02:06:45;2.30;99.90
11446;DHT22;5779;64.178;15.432;2022-10-16T02:09:33;2.40;99.90
11446;DHT22;5779;64.178;15.432;2022-10-16T02:12:23;2.40;99.90
11446;DHT22;5779;64.178;15.432;2022-10-16T02:15:12;2.50;99.90
11446;DHT22;5779;64.178;15.432;2022-10-16T02:18:01;2.50;99.90
11446;DHT22;5779;64.178;15.432;2022-10-16T02:20:51;2.60;99.90
11446;DHT22;5779;64.178;15.432;2022-10-16T02:23:45;2.50;99.90
11446;DHT22;5779;64.178;15.432;2022-10-16T02:26:39;2.40;99.90
11446;DHT22;5779;64.178;15.432;2022-10-16T02:29:26;2.30;99.90
11446;DHT22;5779;64.178;15.432;2022-10-16T02:32:16;2.40;99.90
11446;DHT22;5779;64.178;15.432;2022-10-16T02:35:07;2.50;99.90
11446;DHT22;5779;64.178;15.432;2022-10-16T02:37:54;2.40;99.90
11446;DHT22;5779;64.178;15.432;2022-10-16T02:40:42;2.50;99.90
11446;DHT22;5779;64.178;15.432;2022-10-16T02:43:29;2.30;99.90
11446;DHT22;5779;64.178;15.432;2022-10-16T02:46:17;2.20;99.90
11446;DHT22;5779;64.178;15.432;2022-10-16T02:49:04;2.30;99.90
11446;DHT22;5779;64.178;15.432;2022-10-16T02:51:52;2.30;99.90
11446;DHT22;5779;64.178;15.432;2022-10-16T02:54:39;2.40;99.90
11446;DHT22;5779;64.178;15.432;2022-10-16T02:57:26;2.50;99.90
11446;DHT22;5779;64.178;15.432;2022-10-16T03:00:15;2.40;99.90
11446;DHT22;5779;64.178;15.432;2022-10-16T03:03:02;2.40;99.90
11446;DHT22;5779;64.178;15.432;2022-10-16T03:05:49;2.30;99.90
11446;DHT22;5779;64.178;15.432;2022-10-16T03:08:37;2.20;99.90
11446;DHT22;5779;64.178;15.432;2022-10-16T03:11:24;2.10;99.90
11446;DHT22;5779;64.178;15.432;2022-10-16T03:14:11;2.00;99.90
11446;DHT22;5779;64.178;15.432;2022-10-16T03:16:58;1.90;99.90
11446;DHT22;5779;64.178;15.432;2022-10-16T03:19:45;1.90;99.90
11446;DHT22;5779;64.178;15.432;2022-10-16T03:22:32;1.70;99.90
11446;DHT22;5779;64.178;15.432;2022-10-16T03:25:20;1.50;99.90
11446;DHT22;5779;64.178;15.432;2022-10-16T03:28:07;1.40;99.90
11446;DHT22;5779;64.178;15.432;2022-10-16T03:30:54;1.40;99.90
11446;DHT22;5779;64.178;15.432;2022-10-16T03:33:41;1.50;99.90
11446;DHT22;5779;64.178;15.432;2022-10-16T03:36:28;1.40;99.90
11446;DHT22;5779;64.178;15.432;2022-10-16T03:39:15;1.30;99.90
11446;DHT22;5779;64.178;15.432;2022-10-16T03:42:03;1.30;99.90
11446;DHT22;5779;64.178;15.432;2022-10-16T03:44:50;1.50;99.90
11446;DHT22;5779;64.178;15.432;2022-10-16T03:47:37;1.40;99.90
11446;DHT22;5779;64.178;15.432;2022-10-16T03:50:24;1.20;99.90
11446;DHT22;5779;64.178;15.432;2022-10-16T03:53:10;1.20;99.90
11446;DHT22;5779;64.178;15.432;2022-10-16T03:55:57;1.60;99.90
11446;DHT22;5779;64.178;15.432;2022-10-16T03:58:46;1.50;99.90
11446;DHT22;5779;64.178;15.432;2022-10-16T04:01:33;1.50;99.90
11446;DHT22;5779;64.178;15.432;2022-10-16T04:04:20;1.50;99.90
11446;DHT22;5779;64.178;15.432;2022-10-16T04:07:06;1.50;99.90
11446;DHT22;5779;64.178;15.432;2022-10-16T04:09:53;1.50;99.90
11446;DHT22;5779;64.178;15.432;2022-10-16T04:12:40;1.70;99.90
11446;DHT22;5779;64.178;15.432;2022-10-16T04:15:29;1.60;99.90
11446;DHT22;5779;64.178;15.432;2022-10-16T04:18:15;1.60;99.90
11446;DHT22;5779;64.178;15.432;2022-10-16T04:21:03;1.80;99.90
11446;DHT22;5779;64.178;15.432;2022-10-16T04:23:50;1.80;99.90
11446;DHT22;5779;64.178;15.432;2022-10-16T04:26:37;2.10;99.90
11446;DHT22;5779;64.178;15.432;2022-10-16T04:29:24;2.20;99.90
11446;DHT22;5779;64.178;15.432;2022-10-16T04:32:12;2.30;99.90
11446;DHT22;5779;64.178;15.432;2022-10-16T04:34:59;2.00;99.90
11446;DHT22;5779;64.178;15.432;2022-10-16T04:37:46;1.90;99.90
11446;DHT22;5779;64.178;15.432;2022-10-16T04:40:33;1.80;99.90
11446;DHT22;5779;64.178;15.432;2022-10-16T04:43:21;1.80;99.90
11446;DHT22;5779;64.178;15.432;2022-10-16T04:46:08;1.70;99.90
11446;DHT22;5779;64.178;15.432;2022-10-16T04:48:56;1.80;99.90
11446;DHT22;5779;64.178;15.432;2022-10-16T04:51:43;1.60;99.90
11446;DHT22;5779;64.178;15.432;2022-10-16T04:54:30;1.70;99.90
11446;DHT22;5779;64.178;15.432;2022-10-16T04:57:17;1.80;99.90
11446;DHT22;5779;64.178;15.432;2022-10-16T05:00:05;1.70;99.90
11446;DHT22;5779;64.178;15.432;2022-10-16T05:02:53;1.70;99.90
11446;DHT22;5779;64.178;15.432;2022-10-16T05:05:44;1.70;99.90
11446;DHT22;5779;64.178;15.432;2022-10-16T05:08:31;1.70;99.90
11446;DHT22;5779;64.178;15.432;2022-10-16T05:11:18;2.10;99.90
11446;DHT22;5779;64.178;15.432;2022-10-16T05:14:05;2.40;99.90
11446;DHT22;5779;64.178;15.432;2022-10-16T05:16:51;2.30;99.90
11446;DHT22;5779;64.178;15.432;2022-10-16T05:19:38;2.30;99.90
11446;DHT22;5779;64.178;15.432;2022-10-16T05:22:27;2.40;99.90
11446;DHT22;5779;64.178;15.432;2022-10-16T05:25:14;2.50;99.90
11446;DHT22;5779;64.178;15.432;2022-10-16T05:28:01;2.60;99.90
11446;DHT22;5779;64.178;15.432;2022-10-16T05:30:48;2.60;99.90
11446;DHT22;5779;64.178;15.432;2022-10-16T05:33:35;2.60;99.90
11446;DHT22;5779;64.178;15.432;2022-10-16T05:36:22;2.70;99.90
11446;DHT22;5779;64.178;15.432;2022-10-16T05:39:10;2.70;99.90
11446;DHT22;5779;64.178;15.432;2022-10-16T05:41:57;2.60;99.90
11446;DHT22;5779;64.178;15.432;2022-10-16T05:44:44;2.70;99.90
11446;DHT22;5779;64.178;15.432;2022-10-16T05:47:30;2.70;99.90
11446;DHT22;5779;64.178;15.432;2022-10-16T05:50:17;2.80;99.90
11446;DHT22;5779;64.178;15.432;2022-10-16T05:53:04;2.90;99.90
11446;DHT22;5779;64.178;15.432;2022-10-16T05:55:53;3.10;99.90
11446;DHT22;5779;64.178;15.432;2022-10-16T05:58:40;3.10;99.90
11446;DHT22;5779;64.178;15.432;2022-10-16T06:01:27;3.00;99.90
11446;DHT22;5779;64.178;15.432;2022-10-16T06:04:14;3.00;99.90
11446;DHT22;5779;64.178;15.432;2022-10-16T06:07:01;3.00;99.90
11446;DHT22;5779;64.178;15.432;2022-10-16T06:09:48;3.10;99.90
11446;DHT22;5779;64.178;15.432;2022-10-16T06:12:37;3.20;99.90
11446;DHT22;5779;64.178;15.432;2022-10-16T06:15:24;3.20;99.90
11446;DHT22;5779;64.178;15.432;2022-10-16T06:18:11;3.20;99.90
11446;DHT22;5779;64.178;15.432;2022-10-16T06:20:58;3.20;99.90
11446;DHT22;5779;64.178;15.432;2022-10-16T06:23:45;3.10;99.90
11446;DHT22;5779;64.178;15.432;2022-10-16T06:26:32;3.00;99.90
11446;DHT22;5779;64.178;15.432;2022-10-16T06:29:20;3.10;99.90
11446;DHT22;5779;64.178;15.432;2022-10-16T06:32:07;3.10;99.90
11446;DHT22;5779;64.178;15.432;2022-10-16T06:34:54;2.90;99.90
11446;DHT22;5779;64.178;15.432;2022-10-16T06:37:41;2.70;99.90
11446;DHT22;5779;64.178;15.432;2022-10-16T06:40:28;2.50;99.90
11446;DHT22;5779;64.178;15.432;2022-10-16T06:43:15;2.40;99.90
11446;DHT22;5779;64.178;15.432;2022-10-16T06:46:05;2.40;99.90
11446;DHT22;5779;64.178;15.432;2022-10-16T06:48:53;2.40;99.90
11446;DHT22;5779;64.178;15.432;2022-10-16T06:51:40;2.40;99.90
11446;DHT22;5779;64.178;15.432;2022-10-16T06:54:27;2.30;99.90
11446;DHT22;5779;64.178;15.432;2022-10-16T06:57:14;2.40;99.90
11446;DHT22;5779;64.178;15.432;2022-10-16T07:00:01;2.30;99.90
11446;DHT22;5779;64.178;15.432;2022-10-16T07:02:50;2.10;99.90
11446;DHT22;5779;64.178;15.432;2022-10-16T07:05:38;1.90;99.90
11446;DHT22;5779;64.178;15.432;2022-10-16T07:08:24;1.70;99.90
11446;DHT22;5779;64.178;15.432;2022-10-16T07:11:12;1.80;99.90
11446;DHT22;5779;64.178;15.432;2022-10-16T07:14:00;1.90;99.90
11446;DHT22;5779;64.178;15.432;2022-10-16T07:16:47;2.00;99.90
11446;DHT22;5779;64.178;15.432;2022-10-16T07:19:35;1.90;99.90
11446;DHT22;5779;64.178;15.432;2022-10-16T07:22:22;1.90;99.90
11446;DHT22;5779;64.178;15.432;2022-10-16T07:25:09;1.90;99.90
11446;DHT22;5779;64.178;15.432;2022-10-16T07:27:56;1.80;99.90
11446;DHT22;5779;64.178;15.432;2022-10-16T07:30:43;1.80;99.90
11446;DHT22;5779;64.178;15.432;2022-10-16T07:33:30;2.00;99.90
11446;DHT22;5779;64.178;15.432;2022-10-16T07:36:20;2.10;99.90
11446;DHT22;5779;64.178;15.432;2022-10-16T07:39:07;2.20;99.90
11446;DHT22;5779;64.178;15.432;2022-10-16T07:41:54;2.00;99.90
11446;DHT22;5779;64.178;15.432;2022-10-16T07:44:41;2.00;99.90
11446;DHT22;5779;64.178;15.432;2022-10-16T07:47:28;2.20;99.90
11446;DHT22;5779;64.178;15.432;2022-10-16T07:50:15;2.30;99.90
11446;DHT22;5779;64.178;15.432;2022-10-16T07:53:03;2.40;99.90
11446;DHT22;5779;64.178;15.432;2022-10-16T07:55:50;2.50;99.90
11446;DHT22;5779;64.178;15.432;2022-10-16T07:58:37;2.60;99.90
11446;DHT22;5779;64.178;15.432;2022-10-16T08:01:24;2.60;99.90
11446;DHT22;5779;64.178;15.432;2022-10-16T08:04:11;2.60;99.90
11446;DHT22;5779;64.178;15.432;2022-10-16T08:06:57;2.70;99.90
11446;DHT22;5779;64.178;15.432;2022-10-16T08:09:49;2.70;99.90
11446;DHT22;5779;64.178;15.432;2022-10-16T08:12:36;2.40;99.90
11446;DHT22;5779;64.178;15.432;2022-10-16T08:15:23;2.20;99.90
11446;DHT22;5779;64.178;15.432;2022-10-16T08:18:11;2.20;99.90
11446;DHT22;5779;64.178;15.432;2022-10-16T08:20:59;2.10;99.90
11446;DHT22;5779;64.178;15.432;2022-10-16T08:23:46;1.90;99.90
11446;DHT22;5779;64.178;15.432;2022-10-16T08:26:34;1.90;99.90
11446;DHT22;5779;64.178;15.432;2022-10-16T08:29:21;1.90;99.90
11446;DHT22;5779;64.178;15.432;2022-10-16T08:32:08;2.00;99.90
11446;DHT22;5779;64.178;15.432;2022-10-16T08:34:55;2.10;99.90
11446;DHT22;5779;64.178;15.432;2022-10-16T08:37:42;2.20;99.90
11446;DHT22;5779;64.178;15.432;2022-10-16T08:40:31;2.20;99.90
11446;DHT22;5779;64.178;15.432;2022-10-16T08:43:31;2.50;99.90
11446;DHT22;5779;64.178;15.432;2022-10-16T08:46:37;2.70;99.90
11446;DHT22;5779;64.178;15.432;2022-10-16T08:49:27;2.60;99.90
11446;DHT22;5779;64.178;15.432;2022-10-16T08:52:16;2.50;99.90
11446;DHT22;5779;64.178;15.432;2022-10-16T08:55:04;2.30;99.90
11446;DHT22;5779;64.178;15.432;2022-10-16T08:57:51;2.30;99.90
11446;DHT22;5779;64.178;15.432;2022-10-16T09:00:40;2.40;99.90
11446;DHT22;5779;64.178;15.432;2022-10-16T09:03:42;2.50;99.90
11446;DHT22;5779;64.178;15.432;2022-10-16T09:06:42;2.60;99.90
11446;DHT22;5779;64.178;15.432;2022-10-16T09:09:49;2.40;99.90
11446;DHT22;5779;64.178;15.432;2022-10-16T09:12:44;2.40;99.90
11446;DHT22;5779;64.178;15.432;2022-10-16T09:15:38;2.50;99.90
11446;DHT22;5779;64.178;15.432;2022-10-16T09:18:32;2.40;99.90
11446;DHT22;5779;64.178;15.432;2022-10-16T09:21:23;2.40;99.90
11446;DHT22;5779;64.178;15.432;2022-10-16T09:24:13;2.70;99.90
11446;DHT22;5779;64.178;15.432;2022-10-16T09:27:00;2.80;99.90
11446;DHT22;5779;64.178;15.432;2022-10-16T09:29:47;2.80;99.90
11446;DHT22;5779;64.178;15.432;2022-10-16T09:32:34;2.90;99.90
11446;DHT22;5779;64.178;15.432;2022-10-16T09:35:27;3.00;99.90
11446;DHT22;5779;64.178;15.432;2022-10-16T09:38:26;2.80;99.90
11446;DHT22;5779;64.178;15.432;2022-10-16T09:41:19;2.90;99.90
11446;DHT22;5779;64.178;15.432;2022-10-16T09:44:17;2.80;99.90
11446;DHT22;5779;64.178;15.432;2022-10-16T09:47:12;2.80;99.90
11446;DHT22;5779;64.178;15.432;2022-10-16T09:50:00;2.70;99.90
11446;DHT22;5779;64.178;15.432;2022-10-16T09:52:50;2.80;99.90
11446;DHT22;5779;64.178;15.432;2022-10-16T09:55:48;2.90;99.90
11446;DHT22;5779;64.178;15.432;2022-10-16T09:58:35;3.00;99.90
11446;DHT22;5779;64.178;15.432;2022-10-16T10:01:27;3.10;99.90
11446;DHT22;5779;64.178;15.432;2022-10-16T10:04:16;3.20;99.90
11446;DHT22;5779;64.178;15.432;2022-10-16T10:07:06;3.30;99.90
11446;DHT22;5779;64.178;15.432;2022-10-16T10:09:56;3.30;99.90
11446;DHT22;5779;64.178;15.432;2022-10-16T10:12:45;3.30;99.90
11446;DHT22;5779;64.178;15.432;2022-10-16T10:15:35;3.40;99.90
11446;DHT22;5779;64.178;15.432;2022-10-16T10:18:22;3.60;99.90
11446;DHT22;5779;64.178;15.432;2022-10-16T10:21:14;3.60;99.90
11446;DHT22;5779;64.178;15.432;2022-10-16T10:24:03;3.40;99.90
11446;DHT22;5779;64.178;15.432;2022-10-16T10:26:56;3.60;99.90
11446;DHT22;5779;64.178;15.432;2022-10-16T10:29:51;3.70;99.90
11446;DHT22;5779;64.178;15.432;2022-10-16T10:32:47;3.70;99.90
11446;DHT22;5779;64.178;15.432;2022-10-16T10:35:43;4.00;99.90
11446;DHT22;5779;64.178;15.432;2022-10-16T10:38:39;4.20;99.90
11446;DHT22;5779;64.178;15.432;2022-10-16T10:41:39;4.40;99.90
11446;DHT22;5779;64.178;15.432;2022-10-16T10:48:02;4.50;99.90
11446;DHT22;5779;64.178;15.432;2022-10-16T10:50:54;4.70;99.90
11446;DHT22;5779;64.178;15.432;2022-10-16T10:53:48;4.80;99.90
11446;DHT22;5779;64.178;15.432;2022-10-16T10:56:45;5.00;99.90
11446;DHT22;5779;64.178;15.432;2022-10-16T11:00:02;4.90;99.90
11446;DHT22;5779;64.178;15.432;2022-10-16T11:02:57;5.00;99.90
11446;DHT22;5779;64.178;15.432;2022-10-16T11:05:51;5.10;99.90
11446;DHT22;5779;64.178;15.432;2022-10-16T11:08:42;5.00;99.90
11446;DHT22;5779;64.178;15.432;2022-10-16T11:11:34;5.20;99.90
11446;DHT22;5779;64.178;15.432;2022-10-16T11:14:25;5.30;99.90
11446;DHT22;5779;64.178;15.432;2022-10-16T11:17:17;5.40;99.90
11446;DHT22;5779;64.178;15.432;2022-10-16T11:20:13;5.60;99.90
11446;DHT22;5779;64.178;15.432;2022-10-16T11:23:06;5.60;99.90
11446;DHT22;5779;64.178;15.432;2022-10-16T11:25:56;5.40;99.90
11446;DHT22;5779;64.178;15.432;2022-10-16T11:28:47;5.10;99.90
11446;DHT22;5779;64.178;15.432;2022-10-16T11:31:37;5.10;99.90
11446;DHT22;5779;64.178;15.432;2022-10-16T11:34:31;5.20;99.90
11446;DHT22;5779;64.178;15.432;2022-10-16T11:37:23;5.10;99.90
11446;DHT22;5779;64.178;15.432;2022-10-16T11:40:20;5.00;99.90
11446;DHT22;5779;64.178;15.432;2022-10-16T11:43:14;5.00;99.90
11446;DHT22;5779;64.178;15.432;2022-10-16T11:46:07;4.70;99.90
11446;DHT22;5779;64.178;15.432;2022-10-16T11:49:00;4.60;99.90
11446;DHT22;5779;64.178;15.432;2022-10-16T11:51:57;4.50;99.90
11446;DHT22;5779;64.178;15.432;2022-10-16T11:54:49;4.50;99.90
11446;DHT22;5779;64.178;15.432;2022-10-16T11:57:40;4.30;99.90
11446;DHT22;5779;64.178;15.432;2022-10-16T12:00:33;4.30;99.90
11446;DHT22;5779;64.178;15.432;2022-10-16T12:03:27;4.30;99.90
11446;DHT22;5779;64.178;15.432;2022-10-16T12:06:25;4.40;99.90
11446;DHT22;5779;64.178;15.432;2022-10-16T12:09:21;4.30;99.90
11446;DHT22;5779;64.178;15.432;2022-10-16T12:12:24;4.10;99.90
11446;DHT22;5779;64.178;15.432;2022-10-16T12:15:29;4.30;99.90
11446;DHT22;5779;64.178;15.432;2022-10-16T12:18:22;4.10;99.90
11446;DHT22;5779;64.178;15.432;2022-10-16T12:21:10;4.10;99.90
11446;DHT22;5779;64.178;15.432;2022-10-16T12:24:01;4.20;99.90
11446;DHT22;5779;64.178;15.432;2022-10-16T12:26:52;4.30;99.90
11446;DHT22;5779;64.178;15.432;2022-10-16T12:29:40;4.30;99.90
11446;DHT22;5779;64.178;15.432;2022-10-16T12:32:31;4.50;99.90
11446;DHT22;5779;64.178;15.432;2022-10-16T12:35:21;4.70;99.90
11446;DHT22;5779;64.178;15.432;2022-10-16T12:38:15;5.00;99.90
11446;DHT22;5779;64.178;15.432;2022-10-16T12:41:05;5.10;99.90
11446;DHT22;5779;64.178;15.432;2022-10-16T12:43:55;5.20;99.90
11446;DHT22;5779;64.178;15.432;2022-10-16T12:46:42;5.10;99.90
11446;DHT22;5779;64.178;15.432;2022-10-16T12:49:36;5.30;99.90
11446;DHT22;5779;64.178;15.432;2022-10-16T12:52:28;5.50;99.90
11446;DHT22;5779;64.178;15.432;2022-10-16T12:55:22;5.60;99.90
11446;DHT22;5779;64.178;15.432;2022-10-16T12:58:24;5.60;99.90
11446;DHT22;5779;64.178;15.432;2022-10-16T13:01:29;5.90;99.90
11446;DHT22;5779;64.178;15.432;2022-10-16T13:07:48;6.00;99.90
11446;DHT22;5779;64.178;15.432;2022-10-16T13:10:44;5.90;99.90
11446;DHT22;5779;64.178;15.432;2022-10-16T13:17:00;6.10;99.90
11446;DHT22;5779;64.178;15.432;2022-10-16T13:19:56;6.10;99.90
11446;DHT22;5779;64.178;15.432;2022-10-16T13:22:51;6.10;99.90
11446;DHT22;5779;64.178;15.432;2022-10-16T13:25:48;6.00;99.90
11446;DHT22;5779;64.178;15.432;2022-10-16T13:28:38;5.80;99.90
11446;DHT22;5779;64.178;15.432;2022-10-16T13:31:28;5.80;99.90
11446;DHT22;5779;64.178;15.432;2022-10-16T13:34:20;5.80;99.90
11446;DHT22;5779;64.178;15.432;2022-10-16T13:37:17;5.80;99.90
11446;DHT22;5779;64.178;15.432;2022-10-16T13:40:20;5.90;99.90
11446;DHT22;5779;64.178;15.432;2022-10-16T13:43:09;6.00;99.90
11446;DHT22;5779;64.178;15.432;2022-10-16T13:45:57;6.00;99.90
11446;DHT22;5779;64.178;15.432;2022-10-16T13:48:55;6.00;99.90
11446;DHT22;5779;64.178;15.432;2022-10-16T13:51:54;5.90;99.90
11446;DHT22;5779;64.178;15.432;2022-10-16T13:54:41;5.90;99.90
11446;DHT22;5779;64.178;15.432;2022-10-16T13:57:28;5.90;99.90
11446;DHT22;5779;64.178;15.432;2022-10-16T14:00:20;6.10;99.90
11446;DHT22;5779;64.178;15.432;2022-10-16T14:03:12;6.10;99.90
11446;DHT22;5779;64.178;15.432;2022-10-16T14:06:01;6.20;99.90
11446;DHT22;5779;64.178;15.432;2022-10-16T14:08:54;6.10;99.90
11446;DHT22;5779;64.178;15.432;2022-10-16T14:11:46;6.10;99.90
11446;DHT22;5779;64.178;15.432;2022-10-16T14:14:40;6.20;99.90
11446;DHT22;5779;64.178;15.432;2022-10-16T14:17:29;6.30;99.90
11446;DHT22;5779;64.178;15.432;2022-10-16T14:20:17;6.30;99.90
11446;DHT22;5779;64.178;15.432;2022-10-16T14:23:18;6.30;99.90
11446;DHT22;5779;64.178;15.432;2022-10-16T14:26:13;6.20;99.90
11446;DHT22;5779;64.178;15.432;2022-10-16T14:29:11;6.20;99.90
11446;DHT22;5779;64.178;15.432;2022-10-16T14:32:00;5.90;99.90
11446;DHT22;5779;64.178;15.432;2022-10-16T14:34:53;5.60;99.90
11446;DHT22;5779;64.178;15.432;2022-10-16T14:37:40;5.50;99.90
11446;DHT22;5779;64.178;15.432;2022-10-16T14:40:29;5.30;99.90
11446;DHT22;5779;64.178;15.432;2022-10-16T14:43:21;5.10;99.90
11446;DHT22;5779;64.178;15.432;2022-10-16T14:46:12;4.80;99.90
11446;DHT22;5779;64.178;15.432;2022-10-16T14:49:03;4.60;99.90
11446;DHT22;5779;64.178;15.432;2022-10-16T14:51:51;4.60;99.90
11446;DHT22;5779;64.178;15.432;2022-10-16T14:54:39;4.70;99.90
11446;DHT22;5779;64.178;15.432;2022-10-16T14:57:27;4.90;99.90
11446;DHT22;5779;64.178;15.432;2022-10-16T15:00:20;5.10;99.90
11446;DHT22;5779;64.178;15.432;2022-10-16T15:03:08;5.20;99.90
11446;DHT22;5779;64.178;15.432;2022-10-16T15:05:54;5.50;99.90
11446;DHT22;5779;64.178;15.432;2022-10-16T15:08:42;5.50;99.90
11446;DHT22;5779;64.178;15.432;2022-10-16T15:11:29;5.50;99.90
11446;DHT22;5779;64.178;15.432;2022-10-16T15:14:17;5.60;99.90
11446;DHT22;5779;64.178;15.432;2022-10-16T15:17:07;5.60;99.90
11446;DHT22;5779;64.178;15.432;2022-10-16T15:19:54;5.60;99.90
11446;DHT22;5779;64.178;15.432;2022-10-16T15:22:43;5.60;99.90
11446;DHT22;5779;64.178;15.432;2022-10-16T15:25:34;5.70;99.90
11446;DHT22;5779;64.178;15.432;2022-10-16T15:28:22;5.60;99.90
11446;DHT22;5779;64.178;15.432;2022-10-16T15:31:09;5.80;99.90
11446;DHT22;5779;64.178;15.432;2022-10-16T15:33:57;5.70;99.90
11446;DHT22;5779;64.178;15.432;2022-10-16T15:36:49;5.70;99.90
11446;DHT22;5779;64.178;15.432;2022-10-16T15:39:36;5.70;99.90
11446;DHT22;5779;64.178;15.432;2022-10-16T15:42:23;5.80;99.90
11446;DHT22;5779;64.178;15.432;2022-10-16T15:45:11;5.70;99.90
11446;DHT22;5779;64.178;15.432;2022-10-16T15:47:58;5.70;99.90
11446;DHT22;5779;64.178;15.432;2022-10-16T15:50:47;5.50;99.90
11446;DHT22;5779;64.178;15.432;2022-10-16T15:53:34;5.40;99.90
11446;DHT22;5779;64.178;15.432;2022-10-16T15:56:20;5.40;99.90
11446;DHT22;5779;64.178;15.432;2022-10-16T15:59:08;5.30;99.90
11446;DHT22;5779;64.178;15.432;2022-10-16T16:01:55;5.10;99.90
11446;DHT22;5779;64.178;15.432;2022-10-16T16:04:42;5.00;99.90
11446;DHT22;5779;64.178;15.432;2022-10-16T16:07:32;4.90;99.90
11446;DHT22;5779;64.178;15.432;2022-10-16T16:10:19;4.80;99.90
11446;DHT22;5779;64.178;15.432;2022-10-16T16:13:07;4.90;99.90
11446;DHT22;5779;64.178;15.432;2022-10-16T16:15:54;4.80;99.90
11446;DHT22;5779;64.178;15.432;2022-10-16T16:18:42;4.90;99.90
11446;DHT22;5779;64.178;15.432;2022-10-16T16:21:29;5.00;99.90
11446;DHT22;5779;64.178;15.432;2022-10-16T16:24:17;4.90;99.90
11446;DHT22;5779;64.178;15.432;2022-10-16T16:27:04;5.00;99.90
11446;DHT22;5779;64.178;15.432;2022-10-16T16:29:51;5.20;99.90
11446;DHT22;5779;64.178;15.432;2022-10-16T16:32:38;5.20;99.90
11446;DHT22;5779;64.178;15.432;2022-10-16T16:35:25;5.10;99.90
11446;DHT22;5779;64.178;15.432;2022-10-16T16:38:12;5.00;99.90
11446;DHT22;5779;64.178;15.432;2022-10-16T16:41:10;5.00;99.90
11446;DHT22;5779;64.178;15.432;2022-10-16T16:44:02;5.00;99.90
11446;DHT22;5779;64.178;15.432;2022-10-16T16:46:49;5.10;99.90
11446;DHT22;5779;64.178;15.432;2022-10-16T16:49:36;4.90;99.90
11446;DHT22;5779;64.178;15.432;2022-10-16T16:52:23;4.90;99.90
11446;DHT22;5779;64.178;15.432;2022-10-16T16:55:10;4.90;99.90
11446;DHT22;5779;64.178;15.432;2022-10-16T16:57:58;4.90;99.90
11446;DHT22;5779;64.178;15.432;2022-10-16T17:00:46;5.10;99.90
11446;DHT22;5779;64.178;15.432;2022-10-16T17:03:34;5.10;99.90
11446;DHT22;5779;64.178;15.432;2022-10-16T17:06:23;5.00;99.90
11446;DHT22;5779;64.178;15.432;2022-10-16T17:09:11;5.10;99.90
11446;DHT22;5779;64.178;15.432;2022-10-16T17:12:00;5.10;99.90
11446;DHT22;5779;64.178;15.432;2022-10-16T17:14:50;5.10;99.90
11446;DHT22;5779;64.178;15.432;2022-10-16T17:17:37;5.20;99.90
11446;DHT22;5779;64.178;15.432;2022-10-16T17:20:25;5.10;99.90
11446;DHT22;5779;64.178;15.432;2022-10-16T17:23:13;5.10;99.90
11446;DHT22;5779;64.178;15.432;2022-10-16T17:26:03;5.10;99.90
11446;DHT22;5779;64.178;15.432;2022-10-16T17:28:52;5.00;99.90
11446;DHT22;5779;64.178;15.432;2022-10-16T17:31:40;4.90;99.90
11446;DHT22;5779;64.178;15.432;2022-10-16T17:34:27;4.90;99.90
11446;DHT22;5779;64.178;15.432;2022-10-16T17:37:14;4.90;99.90
11446;DHT22;5779;64.178;15.432;2022-10-16T17:40:01;4.70;99.90
11446;DHT22;5779;64.178;15.432;2022-10-16T17:42:48;4.40;99.90
11446;DHT22;5779;64.178;15.432;2022-10-16T17:45:36;4.30;99.90
11446;DHT22;5779;64.178;15.432;2022-10-16T17:48:25;4.30;99.90
11446;DHT22;5779;64.178;15.432;2022-10-16T17:51:13;4.20;99.90
11446;DHT22;5779;64.178;15.432;2022-10-16T17:54:01;4.00;99.90
11446;DHT22;5779;64.178;15.432;2022-10-16T17:56:48;4.00;99.90
11446;DHT22;5779;64.178;15.432;2022-10-16T17:59:35;3.90;99.90
11446;DHT22;5779;64.178;15.432;2022-10-16T18:02:22;3.90;99.90
11446;DHT22;5779;64.178;15.432;2022-10-16T18:05:10;4.10;99.90
11446;DHT22;5779;64.178;15.432;2022-10-16T18:07:57;4.30;99.90
11446;DHT22;5779;64.178;15.432;2022-10-16T18:10:45;4.40;99.90
11446;DHT22;5779;64.178;15.432;2022-10-16T18:13:33;4.60;99.90
11446;DHT22;5779;64.178;15.432;2022-10-16T18:16:20;4.50;99.90
11446;DHT22;5779;64.178;15.432;2022-10-16T18:19:06;4.60;99.90